Time;durP1;ratioP1;P1;durP2;ratioP2;P2;SDS_P1;SDS_P2;PMS_P1;PMS_P2;Temp;Humidity;BMP_temperature;BMP_pressure;BME280_temperature;BME280_humidity;BME280_pressure;Samples;Min_cycle;Max_cycle;Signal;HPM_P1;HPM_P2
2023/12/22 00:00:29;;;;;;;0.50;0.50;;;;;;;-0.73;98.67;95953.97;5125604;28;20072;-64
2023/12/22 00:02:54;;;;;;;0.60;0.60;;;;;;;-0.90;98.47;95929.94;5125663;28;20023;-64
2023/12/22 00:05:19;;;;;;;0.50;0.50;;;;;;;-0.77;98.34;95959.16;5107407;28;20063;-63
2023/12/22 00:07:45;;;;;;;0.50;0.50;;;;;;;-0.77;98.26;95966.00;5107051;28;20023;-64
2023/12/22 00:10:10;;;;;;;0.50;0.50;;;;;;;-0.82;98.46;95953.41;5125535;28;20471;-63
2023/12/22 00:12:38;;;;;;;0.50;0.50;;;;;;;-0.79;98.73;95950.78;5107392;28;20028;-63
2023/12/22 00:15:04;;;;;;;0.50;0.50;;;;;;;-0.77;98.69;95971.91;5125513;28;20026;-63
2023/12/22 00:17:29;;;;;;;0.40;0.40;;;;;;;-0.75;98.62;95959.94;5125490;28;20024;-63
2023/12/22 00:19:58;;;;;;;0.50;0.50;;;;;;;-0.77;98.59;95971.09;5125437;28;20015;-64
2023/12/22 00:22:25;;;;;;;0.50;0.50;;;;;;;-0.83;98.54;95974.66;5125182;28;20043;-63
2023/12/22 00:24:50;;;;;;;0.50;0.50;;;;;;;-0.84;98.48;95965.38;5125179;28;20022;-64
2023/12/22 00:27:15;;;;;;;0.50;0.50;;;;;;;-0.85;98.45;95976.44;5125473;28;20019;-63
2023/12/22 00:29:41;;;;;;;0.50;0.50;;;;;;;-0.84;98.50;95983.19;5125485;28;20020;-64
2023/12/22 00:32:09;;;;;;;0.50;0.50;;;;;;;-0.87;98.49;95985.84;5107157;28;20024;-63
2023/12/22 00:34:34;;;;;;;0.50;0.50;;;;;;;-0.84;98.58;95969.63;5127183;28;20102;-64
2023/12/22 00:37:00;;;;;;;0.50;0.50;;;;;;;-0.84;98.68;95974.72;5125300;28;20058;-63
2023/12/22 00:39:25;;;;;;;0.50;0.50;;;;;;;-0.84;98.75;95988.28;5124914;28;20111;-63
2023/12/22 00:41:50;;;;;;;0.50;0.50;;;;;;;-0.84;98.75;95990.84;5125311;28;20023;-63
2023/12/22 00:44:16;;;;;;;0.50;0.50;;;;;;;-0.83;98.72;95986.56;5125183;28;20517;-63
2023/12/22 00:46:41;;;;;;;0.50;0.50;;;;;;;-0.88;98.73;95981.63;5106979;28;20027;-63
2023/12/22 00:49:07;;;;;;;0.50;0.50;;;;;;;-0.81;98.82;96002.63;5125167;28;20019;-64
2023/12/22 00:51:32;;;;;;;0.50;0.50;;;;;;;-0.75;99.01;96000.69;5126631;28;20081;-62
2023/12/22 00:53:58;;;;;;;0.50;0.50;;;;;;;-0.76;98.77;95993.09;5124875;28;20141;-63
2023/12/22 00:56:23;;;;;;;0.50;0.50;;;;;;;-0.76;98.87;95998.19;5125241;28;20095;-63
2023/12/22 00:58:48;;;;;;;0.50;0.50;;;;;;;-0.76;98.91;96016.88;5106731;28;20043;-64
2023/12/22 01:01:14;;;;;;;0.50;0.50;;;;;;;-0.70;98.83;96015.81;5125171;28;20076;-64
2023/12/22 01:03:39;;;;;;;0.50;0.50;;;;;;;-0.80;98.99;96007.66;5125218;28;20024;-64
2023/12/22 01:06:05;;;;;;;0.47;0.47;;;;;;;-0.74;98.80;96016.81;5125185;28;20028;-64
2023/12/22 01:08:30;;;;;;;0.40;0.40;;;;;;;-0.73;98.66;96026.13;5124993;28;20027;-64
2023/12/22 01:10:56;;;;;;;0.50;0.50;;;;;;;-0.82;98.76;96023.88;5124732;28;20019;-64
2023/12/22 01:13:21;;;;;;;0.50;0.50;;;;;;;-0.76;98.60;96026.22;5125500;28;20165;-64
2023/12/22 01:15:46;;;;;;;0.50;0.50;;;;;;;-0.78;98.54;96025.44;5129601;28;20024;-64
2023/12/22 01:18:12;;;;;;;0.43;0.43;;;;;;;-0.76;98.65;96036.41;5128783;28;20110;-64
2023/12/22 01:20:37;;;;;;;0.50;0.50;;;;;;;-0.79;98.84;96049.25;5128489;28;20023;-64
2023/12/22 01:23:02;;;;;;;0.50;0.50;;;;;;;-0.79;99.18;96050.09;5128159;28;20048;-64
2023/12/22 01:25:28;;;;;;;0.50;0.50;;;;;;;-0.78;98.74;96045.81;5110172;28;20558;-64
2023/12/22 01:27:53;;;;;;;0.50;0.50;;;;;;;-0.72;98.70;96071.09;5128670;28;20048;-63
2023/12/22 01:30:19;;;;;;;0.47;0.47;;;;;;;-0.72;98.92;96049.88;5128699;28;20020;-63
2023/12/22 01:32:44;;;;;;;0.40;0.40;;;;;;;-0.70;98.64;96059.13;5128440;28;20050;-64
2023/12/22 01:35:10;;;;;;;0.50;0.50;;;;;;;-0.70;98.54;96068.50;5128375;28;20046;-64
2023/12/22 01:37:37;;;;;;;0.50;0.50;;;;;;;-0.72;98.75;96062.59;5128317;28;20049;-64
2023/12/22 01:40:02;;;;;;;0.43;0.43;;;;;;;-0.69;98.58;96065.91;5128190;28;20066;-63
2023/12/22 01:42:28;;;;;;;0.50;0.50;;;;;;;-0.72;98.55;96075.34;5128329;28;20043;-63
2023/12/22 01:44:53;;;;;;;0.50;0.50;;;;;;;-0.72;98.30;96067.72;5128336;28;20079;-64
2023/12/22 01:47:19;;;;;;;0.43;0.43;;;;;;;-0.71;98.50;96077.84;5128165;28;20035;-63
2023/12/22 01:49:44;;;;;;;0.50;0.50;;;;;;;-0.68;98.52;96082.84;5109684;28;20020;-63
2023/12/22 01:52:11;;;;;;;0.50;0.50;;;;;;;-0.66;98.62;96085.31;5128153;28;20019;-63
2023/12/22 01:54:36;;;;;;;0.50;0.50;;;;;;;-0.66;98.57;96083.63;5127982;28;20023;-64
2023/12/22 01:57:02;;;;;;;0.40;0.40;;;;;;;-0.66;98.63;96090.41;5128129;28;20045;-64
2023/12/22 01:59:30;;;;;;;0.50;0.50;;;;;;;-0.71;98.69;96087.19;5109602;28;20053;-64
2023/12/22 02:01:56;;;;;;;0.50;0.50;;;;;;;-0.68;98.50;96099.81;5127913;28;20055;-64
2023/12/22 02:04:22;;;;;;;0.50;0.50;;;;;;;-0.63;98.49;96093.72;5127814;28;20050;-64
2023/12/22 02:06:47;;;;;;;0.50;0.50;;;;;;;-0.65;98.32;96108.19;5109525;28;20027;-63
2023/12/22 02:09:13;;;;;;;0.50;0.50;;;;;;;-0.64;98.41;96103.94;5127484;28;20024;-64
2023/12/22 02:11:38;;;;;;;0.47;0.47;;;;;;;-0.68;98.31;96110.84;5109438;28;20042;-63
2023/12/22 02:14:04;;;;;;;0.50;0.50;;;;;;;-0.68;98.36;96107.47;5127722;28;20026;-64
2023/12/22 02:16:41;;;;;;;0.50;0.50;;;;;;;-0.74;98.33;96103.41;5127685;28;20087;-64
2023/12/22 02:19:34;;;;;;;0.50;0.50;;;;;;;-0.72;98.49;96104.22;5127589;28;20062;-64
2023/12/22 02:22:01;;;;;;;0.50;0.50;;;;;;;-0.77;98.63;96106.06;5127404;28;20026;-64
2023/12/22 02:24:26;;;;;;;0.40;0.40;;;;;;;-0.74;98.66;96111.06;5127670;28;20011;-63
2023/12/22 02:26:54;;;;;;;0.50;0.50;;;;;;;-0.77;98.58;96104.31;5126396;28;20352;-63
2023/12/22 02:29:21;;;;;;;0.50;0.50;;;;;;;-0.78;98.58;96102.66;5127495;28;20041;-63
2023/12/22 02:31:51;;;;;;;0.50;0.50;;;;;;;-0.76;98.64;96115.34;5127747;28;20023;-64
2023/12/22 02:34:19;;;;;;;0.43;0.43;;;;;;;-0.84;98.79;96110.50;5109078;28;20041;-64
2023/12/22 02:36:46;;;;;;;0.50;0.50;;;;;;;-0.82;98.84;96123.19;5127281;28;20031;-64
2023/12/22 02:39:13;;;;;;;0.50;0.50;;;;;;;-0.86;98.83;96124.19;5126852;28;20051;-64
2023/12/22 02:41:39;;;;;;;0.50;0.50;;;;;;;-0.82;98.75;96121.50;5127220;28;20038;-64
2023/12/22 02:44:05;;;;;;;0.45;0.45;;;;;;;-0.90;99.01;96114.09;5127078;28;20466;-63
2023/12/22 02:46:30;;;;;;;0.50;0.50;;;;;;;-0.85;98.86;96121.59;5126522;28;20483;-63
2023/12/22 02:48:55;;;;;;;0.50;0.50;;;;;;;-0.84;98.99;96125.78;5127316;28;20053;-62
2023/12/22 02:51:21;;;;;;;0.50;0.50;;;;;;;-0.82;99.02;96135.94;5127255;28;20031;-63
2023/12/22 02:53:46;;;;;;;0.50;0.50;;;;;;;-0.80;99.17;96132.44;5126717;28;20023;-64
2023/12/22 02:56:11;;;;;;;0.40;0.40;;;;;;;-0.83;98.93;96150.38;5128097;28;20019;-63
2023/12/22 02:58:37;;;;;;;0.50;0.50;;;;;;;-0.90;99.03;96129.38;5126734;28;20111;-64
2023/12/22 03:01:02;;;;;;;0.50;0.50;;;;;;;-0.84;98.95;96152.97;5127156;28;20042;-63
2023/12/22 03:03:28;;;;;;;0.50;0.50;;;;;;;-0.84;98.86;96152.97;5126804;28;20063;-63
2023/12/22 03:05:53;;;;;;;0.50;0.50;;;;;;;-0.84;99.00;96153.81;5126831;28;20077;-64
2023/12/22 03:08:18;;;;;;;0.50;0.50;;;;;;;-0.84;99.14;96153.81;5126653;28;20020;-64
2023/12/22 03:10:43;;;;;;;0.50;0.50;;;;;;;-0.92;99.21;96145.56;5126522;28;20083;-64
2023/12/22 03:13:09;;;;;;;0.50;0.50;;;;;;;-0.81;99.15;96156.25;5126826;28;20516;-64
2023/12/22 03:15:34;;;;;;;0.50;0.50;;;;;;;-0.78;98.97;96168.88;5127311;28;20019;-62
2023/12/22 03:17:59;;;;;;;0.40;0.40;;;;;;;-0.81;98.95;96174.06;5108417;28;20031;-64
2023/12/22 03:20:25;;;;;;;0.50;0.50;;;;;;;-0.81;98.99;96179.16;5126522;28;20422;-64
2023/12/22 03:22:50;;;;;;;0.50;0.50;;;;;;;-0.78;99.14;96186.72;5126101;28;20107;-64
2023/12/22 03:25:15;;;;;;;0.50;0.50;;;;;;;-0.78;99.23;96184.16;5107999;28;20020;-64
2023/12/22 03:27:41;;;;;;;0.50;0.50;;;;;;;-0.79;99.27;96187.59;5126415;28;20031;-64
2023/12/22 03:30:06;;;;;;;0.50;0.50;;;;;;;-0.77;99.22;96196.00;5126259;28;20424;-64
2023/12/22 03:32:32;;;;;;;0.50;0.50;;;;;;;-0.77;99.21;96205.38;5126396;28;20027;-64
2023/12/22 03:34:57;;;;;;;0.50;0.50;;;;;;;-0.81;99.34;96204.63;5126433;28;20062;-64
2023/12/22 03:37:22;;;;;;;0.50;0.50;;;;;;;-0.78;99.47;96214.72;5126128;28;20023;-64
2023/12/22 03:39:48;;;;;;;0.50;0.50;;;;;;;-0.81;99.14;96221.63;5125936;28;20058;-64
2023/12/22 03:42:13;;;;;;;0.50;0.50;;;;;;;-0.80;99.27;96216.47;5125995;28;20031;-64
2023/12/22 03:44:38;;;;;;;0.40;0.40;;;;;;;-0.77;99.34;96230.84;5126496;28;20027;-64
2023/12/22 03:47:04;;;;;;;0.50;0.50;;;;;;;-0.87;99.32;96209.91;5108011;28;20023;-64
2023/12/22 03:49:29;;;;;;;0.50;0.50;;;;;;;-0.72;99.20;96243.44;5125996;28;20077;-63
2023/12/22 03:51:54;;;;;;;0.50;0.50;;;;;;;-0.76;99.10;96242.69;5126312;28;20467;-64
2023/12/22 03:54:20;;;;;;;0.50;0.50;;;;;;;-0.76;99.17;96253.72;5125430;28;20031;-64
2023/12/22 03:56:46;;;;;;;0.50;0.50;;;;;;;-0.84;99.35;96260.75;5125981;28;20463;-64
2023/12/22 03:59:12;;;;;;;0.50;0.50;;;;;;;-0.78;99.17;96254.63;5125870;28;20037;-64
2023/12/22 04:01:37;;;;;;;0.50;0.50;;;;;;;-0.78;99.27;96265.66;5125915;28;20022;-64
2023/12/22 04:04:03;;;;;;;0.50;0.50;;;;;;;-0.77;99.33;96276.69;5125601;28;20083;-64
2023/12/22 04:06:29;;;;;;;0.50;0.50;;;;;;;-0.79;99.43;96279.28;5125655;28;20023;-64
2023/12/22 04:08:54;;;;;;;2.90;2.70;;;;;;;-0.77;99.34;96291.97;5107193;28;20114;-64
2023/12/22 04:11:19;;;;;;;0.60;0.60;;;;;;;-0.76;99.23;96293.63;5125609;28;20020;-64
2023/12/22 04:13:44;;;;;;;0.50;0.50;;;;;;;-0.82;99.28;96298.91;5125672;28;20039;-64
2023/12/22 04:16:10;;;;;;;0.50;0.50;;;;;;;-0.85;99.21;96309.19;5107284;28;20020;-64
2023/12/22 04:18:35;;;;;;;0.50;0.50;;;;;;;-0.87;99.15;96306.69;5125424;28;20016;-64
2023/12/22 04:21:01;;;;;;;0.40;0.40;;;;;;;-0.86;99.26;96322.81;5125579;28;20595;-64
2023/12/22 04:23:26;;;;;;;0.40;0.40;;;;;;;-0.84;99.27;96323.56;5125545;28;20040;-64
2023/12/22 04:25:52;;;;;;;0.50;0.50;;;;;;;-0.86;99.33;96333.81;5125425;28;20028;-64
2023/12/22 04:28:17;;;;;;;0.50;0.50;;;;;;;-0.87;99.21;96334.69;5125606;28;20525;-64
2023/12/22 04:30:42;;;;;;;0.50;0.50;;;;;;;-0.86;99.22;96341.44;5107306;28;20103;-64
2023/12/22 04:33:08;;;;;;;0.50;0.50;;;;;;;-0.97;99.19;96338.34;5125400;28;20027;-64
2023/12/22 04:35:33;;;;;;;0.50;0.50;;;;;;;-0.90;99.42;96344.97;5125407;28;20019;-64
2023/12/22 04:37:59;;;;;;;0.50;0.50;;;;;;;-0.86;99.30;96359.28;5125364;28;20054;-64
2023/12/22 04:40:24;;;;;;;0.50;0.50;;;;;;;-0.85;99.39;96355.88;5125139;28;20102;-64
2023/12/22 04:42:50;;;;;;;0.50;0.50;;;;;;;-1.01;99.52;96330.81;5125388;28;20030;-63
2023/12/22 04:45:16;;;;;;;0.50;0.50;;;;;;;-0.87;99.60;96372.88;5125481;28;20080;-63
2023/12/22 04:47:42;;;;;;;0.50;0.50;;;;;;;-0.88;99.36;96382.22;5107046;28;20032;-64
2023/12/22 04:50:08;;;;;;;0.50;0.50;;;;;;;-0.86;99.34;96381.38;5126581;28;20020;-63
2023/12/22 04:52:33;;;;;;;0.50;0.50;;;;;;;-0.85;99.45;96391.53;5129335;28;20042;-63
2023/12/22 04:54:58;;;;;;;0.40;0.40;;;;;;;-0.85;99.59;96388.97;5129134;28;20111;-64
2023/12/22 04:57:24;;;;;;;2.25;2.15;;;;;;;-0.94;99.51;96389.22;5129387;28;20026;-64
2023/12/22 04:59:49;;;;;;;0.50;0.50;;;;;;;-0.81;99.54;96413.47;5129252;28;20055;-64
2023/12/22 05:02:14;;;;;;;0.60;0.60;;;;;;;-0.82;99.58;96410.97;5129186;28;20027;-64
2023/12/22 05:04:40;;;;;;;0.80;0.80;;;;;;;-0.79;99.62;96413.44;5110549;28;20027;-63
2023/12/22 05:07:06;;;;;;;0.50;0.50;;;;;;;-0.78;99.71;96421.03;5129178;28;20026;-64
2023/12/22 05:09:33;;;;;;;0.40;0.40;;;;;;;-0.81;99.49;96428.75;5128852;28;20475;-63
2023/12/22 05:11:59;;;;;;;0.50;0.50;;;;;;;-0.84;99.48;96423.75;5129312;28;20107;-65
2023/12/22 05:14:24;;;;;;;0.40;0.40;;;;;;;-0.88;99.48;96435.72;5128750;28;20023;-64
2023/12/22 05:16:50;;;;;;;0.50;0.50;;;;;;;-0.86;99.36;96435.66;5128812;28;20023;-65
2023/12/22 05:19:15;;;;;;;0.50;0.50;;;;;;;-0.89;99.48;96448.47;5128617;28;20044;-65
2023/12/22 05:21:41;;;;;;;0.50;0.50;;;;;;;-0.88;99.56;96460.34;5128962;28;20051;-66
2023/12/22 05:24:06;;;;;;;0.50;0.50;;;;;;;-0.86;99.67;96458.59;5128545;28;20080;-65
2023/12/22 05:26:31;;;;;;;0.50;0.50;;;;;;;-0.90;99.75;96467.19;5128726;28;20020;-65
2023/12/22 05:28:57;;;;;;;0.50;0.50;;;;;;;-0.91;99.73;96468.91;5128963;28;20012;-64
2023/12/22 05:31:22;;;;;;;0.43;0.43;;;;;;;-0.85;99.67;96487.44;5110359;28;20019;-64
2023/12/22 05:33:48;;;;;;;0.50;0.50;;;;;;;-0.82;99.70;96490.75;5128620;28;20102;-65
2023/12/22 05:36:13;;;;;;;0.50;0.50;;;;;;;-0.82;99.80;96502.66;5128652;28;20031;-64
2023/12/22 05:38:39;;;;;;;0.50;0.50;;;;;;;-0.82;99.92;96510.28;5128376;28;20015;-65
2023/12/22 05:41:06;;;;;;;0.50;0.50;;;;;;;-0.80;99.83;96509.34;5128241;28;20026;-65
2023/12/22 05:43:33;;;;;;;0.50;0.50;;;;;;;-0.76;99.83;96527.94;5128419;28;20031;-65
2023/12/22 05:45:58;;;;;;;0.50;0.50;;;;;;;-0.78;99.92;96524.59;5128380;28;20023;-65
2023/12/22 05:48:23;;;;;;;0.50;0.50;;;;;;;-0.76;99.66;96527.94;5128434;28;20024;-65
2023/12/22 05:50:49;;;;;;;0.50;0.50;;;;;;;-0.82;99.71;96534.06;5128495;28;20043;-65
2023/12/22 05:53:15;;;;;;;0.50;0.50;;;;;;;-0.81;99.73;96540.81;5127990;28;20107;-65
2023/12/22 05:55:40;;;;;;;0.50;0.50;;;;;;;-0.76;99.63;96563.63;5127972;28;20027;-65
2023/12/22 05:58:05;;;;;;;0.50;0.50;;;;;;;-0.78;99.74;96566.19;5127946;28;20077;-66
2023/12/22 06:00:31;;;;;;;0.50;0.50;;;;;;;-0.78;99.78;96565.34;5130521;28;20038;-62
2023/12/22 06:02:56;;;;;;;0.50;0.50;;;;;;;-0.76;99.67;96563.63;5130523;28;20098;-63
2023/12/22 06:05:22;;;;;;;0.50;0.50;;;;;;;-0.79;99.68;96574.72;5113389;28;20459;-65
2023/12/22 06:07:47;;;;;;;0.50;0.50;;;;;;;-0.88;99.45;96580.88;5128834;28;20049;-65
2023/12/22 06:10:12;;;;;;;0.50;0.50;;;;;;;-0.85;99.63;96590.16;5127532;28;20016;-65
2023/12/22 06:12:38;;;;;;;0.50;0.50;;;;;;;-0.90;99.74;96586.88;5127649;28;20031;-64
2023/12/22 06:15:04;;;;;;;0.50;0.50;;;;;;;-0.91;99.66;96596.22;5127751;28;20020;-65
2023/12/22 06:17:29;;;;;;;0.50;0.50;;;;;;;-0.96;99.81;96620.13;5109176;28;20026;-66
2023/12/22 06:19:54;;;;;;;0.50;0.50;;;;;;;-0.99;99.84;96628.66;5127645;28;20020;-65
2023/12/22 06:22:21;;;;;;;0.47;0.47;;;;;;;-1.00;99.96;96630.38;5127331;28;20043;-66
2023/12/22 06:24:46;;;;;;;0.43;0.43;;;;;;;-0.93;100.00;96637.88;5127141;28;20493;-66
2023/12/22 06:27:11;;;;;;;0.60;0.60;;;;;;;-0.89;100.00;96644.56;5127696;28;20035;-65
2023/12/22 06:29:38;;;;;;;0.40;0.40;;;;;;;-0.93;99.96;96632.78;5127424;28;20027;-66
2023/12/22 06:32:05;;;;;;;0.55;0.55;;;;;;;-0.87;99.97;96645.38;5127411;28;20143;-65
2023/12/22 06:34:31;;;;;;;2.05;1.95;;;;;;;-0.89;99.84;96652.22;5127458;28;20044;-65
2023/12/22 06:36:57;;;;;;;0.50;0.50;;;;;;;-0.82;99.94;96663.94;5127385;28;20051;-65
2023/12/22 06:39:22;;;;;;;0.50;0.50;;;;;;;-0.79;99.93;96674.06;5126904;28;20030;-65
2023/12/22 06:41:47;;;;;;;0.45;0.45;;;;;;;-0.86;99.87;96680.16;5127543;28;20030;-66
2023/12/22 06:44:13;;;;;;;0.50;0.50;;;;;;;-0.89;100.00;96685.31;5127379;28;20020;-67
2023/12/22 06:46:38;;;;;;;0.63;0.63;;;;;;;-0.95;99.96;96688.00;5127122;28;20035;-65
2023/12/22 06:49:04;;;;;;;0.50;0.50;;;;;;;-0.81;99.85;96708.91;5127040;28;20087;-65
2023/12/22 06:51:31;;;;;;;0.43;0.43;;;;;;;-0.79;100.00;96716.50;5108618;28;20058;-66
2023/12/22 06:53:57;;;;;;;0.50;0.50;;;;;;;-0.77;99.88;96719.88;5127204;28;20023;-65
2023/12/22 06:56:27;;;;;;;0.50;0.50;;;;;;;-0.76;99.92;96724.09;5108549;28;20028;-64
2023/12/22 06:58:56;;;;;;;0.50;0.50;;;;;;;-0.83;99.71;96727.66;5127049;28;20065;-65
2023/12/22 07:01:23;;;;;;;0.50;0.50;;;;;;;-0.76;99.87;96735.13;5108884;28;20058;-66
2023/12/22 07:03:49;;;;;;;0.50;0.50;;;;;;;-0.77;99.87;96730.88;5127066;28;20050;-66
2023/12/22 07:06:16;;;;;;;0.50;0.50;;;;;;;-0.85;99.80;96748.06;5127016;28;20030;-66
2023/12/22 07:08:42;;;;;;;0.50;0.50;;;;;;;-0.84;99.68;96759.91;5126828;28;20015;-66
2023/12/22 07:11:08;;;;;;;0.50;0.50;;;;;;;-0.84;99.64;96772.66;5108383;28;20015;-66
2023/12/22 07:13:33;;;;;;;0.50;0.50;;;;;;;-0.85;99.50;96770.97;5126453;28;20031;-66
2023/12/22 07:15:59;;;;;;;0.50;0.50;;;;;;;-0.92;99.54;96783.00;5126950;28;20443;-65
2023/12/22 07:18:25;;;;;;;0.50;0.50;;;;;;;-0.91;99.44;96807.59;5108076;28;20091;-66
2023/12/22 07:20:50;;;;;;;0.50;0.50;;;;;;;-0.94;99.40;96805.09;5126776;28;20078;-68
2023/12/22 07:23:16;;;;;;;0.50;0.50;;;;;;;-1.01;99.50;96809.47;5108100;28;20387;-67
2023/12/22 07:25:41;;;;;;;0.50;0.50;;;;;;;-0.96;99.23;96814.50;5108151;28;20031;-68
2023/12/22 07:28:07;;;;;;;0.50;0.50;;;;;;;-1.01;99.29;96814.56;5108465;28;20020;-68
2023/12/22 07:30:32;;;;;;;0.50;0.50;;;;;;;-1.15;99.24;96803.84;5107951;28;20024;-67
2023/12/22 07:32:57;;;;;;;0.50;0.50;;;;;;;-1.03;99.21;96843.47;5126413;28;20038;-66
2023/12/22 07:35:23;;;;;;;0.50;0.50;;;;;;;-1.02;99.37;96850.25;5126492;28;20024;-66
2023/12/22 07:37:48;;;;;;;0.50;0.50;;;;;;;-0.98;99.37;96849.34;5126438;28;20023;-67
2023/12/22 07:40:14;;;;;;;0.50;0.50;;;;;;;-0.96;99.46;96846.75;5107843;28;20020;-67
2023/12/22 07:42:39;;;;;;;0.40;0.40;;;;;;;-0.98;99.13;96849.34;5126485;28;20027;-67
2023/12/22 07:45:05;;;;;;;0.40;0.40;;;;;;;-1.01;99.03;96867.22;5126194;28;20071;-66
2023/12/22 07:47:32;;;;;;;0.50;0.50;;;;;;;-1.05;99.22;96868.97;5126525;28;20106;-66
2023/12/22 07:49:57;;;;;;;0.50;0.50;;;;;;;-1.01;99.24;96859.56;5126242;28;20022;-67
2023/12/22 07:52:23;;;;;;;0.50;0.50;;;;;;;-1.13;99.15;96864.03;5126306;28;20019;-66
2023/12/22 07:54:48;;;;;;;0.50;0.50;;;;;;;-0.99;99.11;96893.47;5125891;28;20023;-66
2023/12/22 07:57:14;;;;;;;0.60;0.60;;;;;;;-1.06;99.22;96890.22;5126336;28;20053;-68
2023/12/22 07:59:39;;;;;;;0.50;0.50;;;;;;;-0.97;99.26;96901.94;5126128;28;20031;-68
2023/12/22 08:02:04;;;;;;;0.50;0.50;;;;;;;-0.92;98.64;96894.19;5126370;28;20035;-69
2023/12/22 08:04:30;;;;;;;0.45;0.45;;;;;;;-0.97;98.72;96904.47;5126124;28;20363;-68
2023/12/22 08:06:55;;;;;;;0.50;0.50;;;;;;;-0.97;98.63;96901.06;5126247;28;20045;-67
2023/12/22 08:09:22;;;;;;;0.40;0.40;;;;;;;-0.96;98.88;96918.91;5125820;28;20435;-67
2023/12/22 08:11:52;;;;;;;0.50;0.50;;;;;;;-0.94;98.99;96909.50;5126197;28;20034;-67
2023/12/22 08:14:17;;;;;;;0.50;0.50;;;;;;;-0.90;98.66;96912.84;5125980;28;20393;-68
2023/12/22 08:16:44;;;;;;;0.50;0.50;;;;;;;-0.93;98.61;96918.00;5126190;28;20083;-67
2023/12/22 08:19:09;;;;;;;0.52;0.52;;;;;;;-0.92;98.41;96914.56;5107455;28;20016;-66
2023/12/22 08:21:35;;;;;;;0.50;0.50;;;;;;;-0.95;98.45;96918.03;5125858;28;20042;-67
2023/12/22 08:24:00;;;;;;;0.50;0.50;;;;;;;-0.94;98.54;96939.25;5125833;28;20086;-67
2023/12/22 08:26:25;;;;;;;0.50;0.50;;;;;;;-0.96;98.62;96939.28;5128903;28;20459;-67
2023/12/22 08:28:51;;;;;;;0.50;0.50;;;;;;;-0.92;98.71;96957.88;5130115;28;20023;-67
2023/12/22 08:31:16;;;;;;;0.50;0.50;;;;;;;-0.86;98.68;96956.94;5130056;28;20020;-66
2023/12/22 08:33:43;;;;;;;0.60;0.60;;;;;;;-0.86;98.59;96964.56;5129953;28;20027;-66
2023/12/22 08:36:08;;;;;;;0.50;0.50;;;;;;;-0.84;98.74;96967.91;5130055;28;20022;-66
2023/12/22 08:38:34;;;;;;;0.50;0.50;;;;;;;-0.83;98.52;96985.72;5129796;28;20023;-66
2023/12/22 08:40:59;;;;;;;0.40;0.40;;;;;;;-0.87;98.52;96981.56;5129613;28;20528;-67
2023/12/22 08:43:24;;;;;;;0.50;0.50;;;;;;;-0.84;98.77;96993.38;5129880;28;20153;-67
2023/12/22 08:45:50;;;;;;;0.50;0.50;;;;;;;-0.73;98.76;97004.22;5129835;28;20028;-66
2023/12/22 08:48:15;;;;;;;0.50;0.50;;;;;;;-0.66;99.00;96994.78;5129587;28;20395;-67
2023/12/22 08:53:05;;;;;;;0.50;0.50;;;;;;;-0.64;99.02;96995.59;5133478;22;20072;-69
2023/12/22 08:55:31;;;;;;;0.50;0.50;;;;;;;-0.53;98.98;97014.03;5110645;28;20016;-68
2023/12/22 08:57:56;;;;;;;0.50;0.50;;;;;;;-0.45;99.05;97010.53;5103330;22;20052;-66
2023/12/22 09:00:22;;;;;;;0.50;0.50;;;;;;;-0.47;99.08;97010.56;5068452;28;20067;-66
2023/12/22 09:02:47;;;;;;;0.50;0.50;;;;;;;-0.45;98.93;97018.19;5068699;28;20055;-67
2023/12/22 09:05:12;;;;;;;0.50;0.50;;;;;;;-0.45;99.04;97015.63;5068725;28;20171;-65
2023/12/22 09:07:39;;;;;;;0.50;0.50;;;;;;;-0.44;98.97;97022.41;5050522;28;20101;-65
2023/12/22 09:10:04;;;;;;;0.70;0.70;;;;;;;-0.41;98.89;97024.88;5068333;28;20021;-66
2023/12/22 09:12:30;;;;;;;0.50;0.50;;;;;;;-0.44;99.10;97018.16;5068632;28;20024;-66
2023/12/22 09:14:55;;;;;;;0.50;0.50;;;;;;;-0.33;99.12;97025.59;5068307;28;20021;-65
2023/12/22 09:17:21;;;;;;;0.50;0.50;;;;;;;-0.29;99.26;97032.28;5068461;28;20033;-67
2023/12/22 09:19:46;;;;;;;0.50;0.50;;;;;;;-0.30;99.07;97037.41;5068052;28;20040;-65
2023/12/22 09:22:12;;;;;;;0.50;0.50;;;;;;;-0.40;98.85;97008.75;5067992;28;20053;-66
2023/12/22 09:24:38;;;;;;;0.50;0.50;;;;;;;-0.30;98.93;97035.72;5067657;28;20052;-66
2023/12/22 09:27:04;;;;;;;0.50;0.50;;;;;;;-0.29;98.90;97036.56;5050129;28;20123;-67
2023/12/22 09:29:31;;;;;;;0.50;0.50;;;;;;;-0.23;99.12;97045.81;5067873;28;20021;-66
2023/12/22 09:31:57;;;;;;;0.50;0.50;;;;;;;-0.32;99.15;97024.72;5068014;28;20021;-66
2023/12/22 09:34:23;;;;;;;0.50;0.50;;;;;;;-0.20;99.22;97038.09;5068007;28;20036;-67
2023/12/22 09:36:48;;;;;;;0.50;0.50;;;;;;;-0.17;99.15;97049.09;5067361;28;20088;-66
2023/12/22 09:39:16;;;;;;;0.50;0.50;;;;;;;-0.12;99.30;97061.75;5067523;28;20028;-65
2023/12/22 09:41:47;;;;;;;0.50;0.50;;;;;;;-0.14;99.18;97055.81;5067730;28;20404;-65
2023/12/22 09:44:16;;;;;;;0.50;0.50;;;;;;;-0.11;98.95;97060.84;5067539;28;20032;-65
2023/12/22 09:46:43;;;;;;;0.50;0.50;;;;;;;-0.21;98.68;97054.28;5067741;28;20048;-65
2023/12/22 09:49:08;;;;;;;0.50;0.50;;;;;;;-0.18;98.74;97070.34;5049643;28;20075;-65
2023/12/22 09:51:34;;;;;;;0.50;0.50;;;;;;;-0.17;98.82;97051.63;5067577;28;20024;-65
2023/12/22 09:54:02;;;;;;;0.50;0.50;;;;;;;-0.18;98.54;97067.81;5067474;28;20033;-65
2023/12/22 09:56:29;;;;;;;0.50;0.50;;;;;;;-0.22;98.42;97070.44;5049317;28;20029;-65
2023/12/22 09:58:56;;;;;;;0.40;0.40;;;;;;;-0.17;98.27;97073.72;5067339;28;20049;-66
2023/12/22 10:01:22;;;;;;;0.40;0.40;;;;;;;-0.11;98.52;97088.91;5067468;28;20036;-65
2023/12/22 10:03:48;;;;;;;0.50;0.50;;;;;;;-0.10;98.53;97082.09;5049222;28;20056;-65
2023/12/22 10:06:16;;;;;;;0.50;0.50;;;;;;;-0.09;98.47;97088.88;5067476;28;20025;-65
2023/12/22 10:08:43;;;;;;;0.50;0.50;;;;;;;-0.16;98.06;97098.38;5067135;28;20507;-66
2023/12/22 10:11:08;;;;;;;0.50;0.50;;;;;;;-0.12;98.24;97097.44;5067080;28;20075;-66
2023/12/22 10:13:36;;;;;;;0.50;0.50;;;;;;;-0.16;97.62;97111.13;5067363;28;20024;-67
2023/12/22 10:16:04;;;;;;;0.50;0.50;;;;;;;-0.16;97.94;97104.31;5067122;28;20059;-66
2023/12/22 10:18:29;;;;;;;0.50;0.50;;;;;;;-0.19;97.62;97114.56;5067032;28;20025;-67
2023/12/22 10:20:55;;;;;;;0.50;0.50;;;;;;;-0.13;97.76;97109.34;5067061;28;20024;-67
2023/12/22 10:23:20;;;;;;;0.50;0.50;;;;;;;-0.10;97.67;97105.91;5067002;28;20029;-67
2023/12/22 10:25:46;;;;;;;0.50;0.50;;;;;;;-0.01;97.56;97125.28;5066884;28;20029;-67
2023/12/22 10:28:13;;;;;;;0.50;0.50;;;;;;;0.16;98.03;97124.13;5067117;28;20047;-67
2023/12/22 10:30:40;;;;;;;0.50;0.50;;;;;;;0.27;97.66;97121.38;5048889;28;20028;-67
2023/12/22 10:33:06;;;;;;;0.50;0.50;;;;;;;0.27;97.83;97111.16;5066888;28;20032;-66
2023/12/22 10:35:32;;;;;;;0.50;0.50;;;;;;;0.28;97.05;97117.94;5048899;28;20023;-66
2023/12/22 10:37:59;;;;;;;0.40;0.40;;;;;;;0.27;96.84;97123.91;5066745;28;20048;-66
2023/12/22 10:40:25;;;;;;;0.50;0.50;;;;;;;0.18;96.70;97128.31;5048290;28;20020;-67
2023/12/22 10:42:51;;;;;;;0.50;0.50;;;;;;;0.14;96.77;97121.63;5048792;28;20027;-67
2023/12/22 10:45:19;;;;;;;0.50;0.50;;;;;;;0.11;96.78;97126.78;5066720;28;20388;-66
2023/12/22 10:47:45;;;;;;;0.50;0.50;;;;;;;0.04;96.78;97126.06;5066037;28;20028;-67
2023/12/22 10:50:13;;;;;;;0.50;0.50;;;;;;;0.04;96.86;97131.16;5048615;28;20016;-64
2023/12/22 10:52:38;;;;;;;0.50;0.50;;;;;;;-0.04;96.99;97120.25;5048598;28;20025;-65
2023/12/22 10:55:04;;;;;;;0.40;0.40;;;;;;;-0.07;97.35;97136.47;5066360;28;20051;-65
2023/12/22 10:57:37;;;;;;;0.50;0.50;;;;;;;-0.15;97.06;97128.94;5066333;28;20053;-65
2023/12/22 11:00:03;;;;;;;0.50;0.50;;;;;;;-0.26;96.46;97133.41;5066196;28;20028;-66
2023/12/22 11:02:32;;;;;;;0.50;0.50;;;;;;;-0.29;96.45;97136.00;5066451;28;20100;-66
2023/12/22 11:05:02;;;;;;;0.50;0.50;;;;;;;-0.34;96.22;97140.31;5066249;28;20036;-65
2023/12/22 11:07:28;;;;;;;0.40;0.40;;;;;;;-0.48;96.03;97122.72;5066479;28;20108;-65
2023/12/22 11:09:57;;;;;;;0.50;0.50;;;;;;;-0.58;96.04;97122.03;5065930;28;20025;-66
2023/12/22 11:12:25;;;;;;;0.50;0.50;;;;;;;-0.54;96.18;97132.16;5066282;28;20021;-66
2023/12/22 11:14:53;;;;;;;0.50;0.50;;;;;;;-0.60;96.44;97142.44;5066357;28;20021;-66
2023/12/22 11:17:21;;;;;;;0.50;0.50;;;;;;;-0.65;96.21;97131.47;5066036;28;20026;-66
2023/12/22 11:19:53;;;;;;;0.43;0.43;;;;;;;-0.67;96.22;97134.06;5047697;28;20021;-67
2023/12/22 11:22:21;;;;;;;0.50;0.50;;;;;;;-0.75;96.29;97121.44;5066087;28;20021;-66
2023/12/22 11:24:50;;;;;;;0.50;0.50;;;;;;;-0.66;96.51;97150.19;5065566;28;20052;-67
2023/12/22 11:27:19;;;;;;;0.50;0.50;;;;;;;-0.63;96.72;97145.91;5065968;28;20104;-67
2023/12/22 11:29:51;;;;;;;0.50;0.50;;;;;;;-0.60;96.72;97149.22;5077812;23;20057;-67